createdAt,value
2022-12-28T00:02:14.150Z,5.85
2022-12-28T00:04:40.893Z,5.65
2022-12-28T00:07:07.546Z,5.80
2022-12-28T00:09:34.276Z,5.90
2022-12-28T00:12:00.928Z,6.57
2022-12-28T00:14:27.587Z,5.70
2022-12-28T00:16:54.426Z,6.32
2022-12-28T00:19:21.096Z,6.38
2022-12-28T00:21:48.657Z,6.47
2022-12-28T00:24:18.998Z,6.45
2022-12-28T00:26:46.114Z,6.13
2022-12-28T00:29:12.796Z,6.25
2022-12-28T00:31:39.591Z,7.30
2022-12-28T00:34:06.387Z,7.38
2022-12-28T00:37:08.349Z,7.35
2022-12-28T00:39:20.591Z,7.85
2022-12-28T00:41:47.526Z,7.05
2022-12-28T00:44:14.195Z,7.80
2022-12-28T00:46:41.100Z,8.02
2022-12-28T00:49:07.777Z,7.53
2022-12-28T00:51:34.587Z,7.25
2022-12-28T00:54:01.284Z,7.32
2022-12-28T00:56:27.955Z,7.15
2022-12-28T00:58:59.454Z,6.65
2022-12-28T01:01:27.028Z,7.63
2022-12-28T01:03:56.932Z,6.25
2022-12-28T01:06:23.667Z,7.05
2022-12-28T01:08:50.413Z,6.30
2022-12-28T01:11:23.067Z,8.40
2022-12-28T01:13:51.187Z,6.78
2022-12-28T01:16:24.981Z,7.43
2022-12-28T01:18:53.762Z,7.35
2022-12-28T01:21:22.704Z,6.55
2022-12-28T01:23:53.914Z,6.70
2022-12-28T01:26:20.589Z,7.40
2022-12-28T01:28:47.344Z,6.90
2022-12-28T01:31:16.354Z,8.43
2022-12-28T01:33:43.322Z,7.72
2022-12-28T01:36:35.168Z,7.43
2022-12-28T01:39:04.374Z,7.57
2022-12-28T01:41:31.616Z,7.53
2022-12-28T01:43:58.279Z,7.63
2022-12-28T01:46:44.010Z,7.65
2022-12-28T01:49:12.122Z,6.55
2022-12-28T01:51:56.001Z,6.85
2022-12-28T01:54:25.248Z,6.07
2022-12-28T01:56:52.063Z,6.68
2022-12-28T01:59:20.080Z,6.72
2022-12-28T02:01:47.063Z,6.05
2022-12-28T02:04:13.861Z,5.68
2022-12-28T02:06:40.621Z,5.70
2022-12-28T02:09:39.525Z,6.22
2022-12-28T02:12:08.255Z,5.20
2022-12-28T02:14:35.233Z,5.00
2022-12-28T02:17:02.035Z,4.60
2022-12-28T02:19:48.699Z,4.57
2022-12-28T02:22:39.581Z,4.70
2022-12-28T02:25:31.058Z,4.50
2022-12-28T02:28:08.227Z,4.38
2022-12-28T02:30:43.873Z,4.32
2022-12-28T02:33:18.078Z,4.05
2022-12-28T02:36:18.525Z,4.00
2022-12-28T02:38:49.193Z,3.70
2022-12-28T02:41:19.665Z,4.00
2022-12-28T02:43:46.516Z,3.67
2022-12-28T02:46:43.919Z,3.80
2022-12-28T02:49:42.931Z,3.40
2022-12-28T02:52:37.095Z,3.55
2022-12-28T02:55:30.024Z,3.67
2022-12-28T02:58:18.627Z,3.42
2022-12-28T03:01:07.367Z,3.90
2022-12-28T03:04:06.632Z,3.47
2022-12-28T03:07:17.064Z,3.40
2022-12-28T03:09:58.786Z,3.55
2022-12-28T03:15:08.133Z,2.95
2022-12-28T03:17:55.275Z,3.85
2022-12-28T03:20:44.134Z,3.35
2022-12-28T03:23:33.066Z,2.50
2022-12-28T03:26:19.804Z,2.95
2022-12-28T03:29:05.526Z,2.22
2022-12-28T03:31:32.987Z,2.38
2022-12-28T03:34:07.122Z,2.78
2022-12-28T03:36:33.801Z,2.40
2022-12-28T03:39:28.287Z,2.53
2022-12-28T03:42:16.831Z,1.95
2022-12-28T03:44:48.630Z,2.38
2022-12-28T03:47:16.360Z,2.47
2022-12-28T03:49:43.419Z,2.45
2022-12-28T03:52:10.390Z,2.60
2022-12-28T03:54:37.154Z,2.80
2022-12-28T03:57:03.868Z,3.00
2022-12-28T03:59:30.632Z,2.80
2022-12-28T04:01:57.468Z,2.50
2022-12-28T04:04:24.207Z,2.70
2022-12-28T04:06:50.906Z,2.30
2022-12-28T04:09:17.618Z,2.28
2022-12-28T04:11:44.369Z,2.67
2022-12-28T04:14:11.460Z,2.58
2022-12-28T04:16:38.211Z,2.63
2022-12-28T04:19:04.975Z,2.17
2022-12-28T04:21:31.723Z,2.50
2022-12-28T04:23:58.418Z,2.35
2022-12-28T04:26:25.205Z,1.83
2022-12-28T04:28:51.871Z,1.88
2022-12-28T04:31:18.619Z,2.38
2022-12-28T04:33:45.369Z,2.10
2022-12-28T04:36:16.331Z,1.88
2022-12-28T04:38:43.284Z,2.13
2022-12-28T04:41:11.666Z,2.13
2022-12-28T04:43:39.980Z,2.05
2022-12-28T04:46:12.008Z,2.45
2022-12-28T04:48:38.768Z,2.05
2022-12-28T04:51:14.468Z,1.88
2022-12-28T04:53:41.679Z,2.30
2022-12-28T04:56:09.412Z,1.88
2022-12-28T04:58:37.318Z,2.72
2022-12-28T05:01:15.357Z,2.90
2022-12-28T05:03:45.972Z,4.53
2022-12-28T05:06:17.251Z,2.55
2022-12-28T05:08:44.469Z,2.13
2022-12-28T05:11:13.993Z,2.15
2022-12-28T05:13:40.690Z,2.42
2022-12-28T05:16:10.538Z,2.30
2022-12-28T05:18:37.910Z,5.38
2022-12-28T05:21:09.886Z,5.38
2022-12-28T05:23:38.105Z,5.13
2022-12-28T05:26:09.993Z,4.03
2022-12-28T05:28:36.691Z,4.85
2022-12-28T05:31:05.831Z,5.32
2022-12-28T05:33:33.984Z,4.00
2022-12-28T05:36:11.607Z,4.70
2022-12-28T05:38:38.726Z,11.55
2022-12-28T05:41:28.108Z,4.10
2022-12-28T05:43:55.873Z,3.45
2022-12-28T05:46:31.026Z,2.90
2022-12-28T05:48:58.220Z,1.98
2022-12-28T05:51:27.767Z,3.03
2022-12-28T05:53:54.709Z,4.55
2022-12-28T05:56:26.571Z,3.42
2022-12-28T05:58:58.458Z,2.50
2022-12-28T06:01:27.884Z,3.25
2022-12-28T06:06:25.480Z,3.40
2022-12-28T06:08:52.576Z,3.60
2022-12-28T06:11:24.791Z,4.65
2022-12-28T06:13:52.105Z,2.85
2022-12-28T06:16:25.458Z,3.55
2022-12-28T06:18:52.644Z,2.53
2022-12-28T06:21:22.203Z,3.22
2022-12-28T06:23:49.308Z,2.70
2022-12-28T06:26:19.049Z,2.47
2022-12-28T06:28:46.394Z,2.13
2022-12-28T06:31:16.470Z,2.50
2022-12-28T06:33:43.542Z,2.88
2022-12-28T06:36:20.344Z,3.97
2022-12-28T06:38:48.810Z,2.92
2022-12-28T06:41:16.634Z,3.80
2022-12-28T06:43:44.104Z,2.95
2022-12-28T06:46:12.161Z,5.38
2022-12-28T06:48:39.087Z,3.80
2022-12-28T06:51:07.732Z,2.97
2022-12-28T06:53:36.220Z,2.42
2022-12-28T06:56:05.903Z,2.35
2022-12-28T06:58:33.461Z,2.40
2022-12-28T07:01:15.067Z,2.83
2022-12-28T07:06:08.878Z,3.83
2022-12-28T07:08:35.755Z,3.40
2022-12-28T07:11:07.407Z,3.75
2022-12-28T07:13:34.770Z,2.83
2022-12-28T07:16:05.875Z,23.55
2022-12-28T07:18:33.248Z,2.85
2022-12-28T07:21:02.323Z,8.43
2022-12-28T07:23:31.283Z,3.63
2022-12-28T07:25:59.021Z,2.88
2022-12-28T07:28:25.751Z,3.85
2022-12-28T07:30:52.546Z,3.22
2022-12-28T07:33:19.254Z,2.28
2022-12-28T07:35:45.917Z,3.47
2022-12-28T07:38:16.595Z,2.60
2022-12-28T07:40:47.651Z,2.88
2022-12-28T07:43:14.337Z,2.50
2022-12-28T07:45:41.164Z,3.65
2022-12-28T07:48:07.869Z,2.53
2022-12-28T07:50:37.946Z,4.47
2022-12-28T07:53:05.032Z,3.25
2022-12-28T07:55:32.256Z,3.28
2022-12-28T07:57:59.184Z,2.80
2022-12-28T08:00:26.479Z,3.33
2022-12-28T08:02:57.170Z,3.20
2022-12-28T08:05:23.847Z,2.95
2022-12-28T08:07:50.585Z,3.03
2022-12-28T08:10:17.310Z,2.75
2022-12-28T08:12:44.002Z,2.53
2022-12-28T08:15:10.850Z,3.25
2022-12-28T08:17:37.526Z,2.67
2022-12-28T08:20:04.516Z,2.35
2022-12-28T08:22:31.217Z,2.50
2022-12-28T08:24:57.924Z,2.20
2022-12-28T08:27:24.641Z,2.65
2022-12-28T08:29:51.348Z,2.92
2022-12-28T08:32:18.054Z,2.83
2022-12-28T08:34:44.729Z,3.22
2022-12-28T08:37:11.787Z,3.67
2022-12-28T08:39:38.506Z,3.10
2022-12-28T08:42:05.700Z,3.00
2022-12-28T08:44:32.483Z,3.35
2022-12-28T08:46:59.191Z,3.25
2022-12-28T08:49:26.119Z,2.83
2022-12-28T08:51:52.885Z,5.07
2022-12-28T08:54:19.602Z,4.63
2022-12-28T08:56:46.701Z,3.80
2022-12-28T08:59:15.926Z,3.40
2022-12-28T09:04:19.670Z,3.20
2022-12-28T09:06:46.589Z,2.22
2022-12-28T09:09:15.492Z,3.00
2022-12-28T09:11:42.720Z,3.08
2022-12-28T09:14:12.667Z,3.53
2022-12-28T09:16:42.337Z,2.95
2022-12-28T09:19:11.120Z,3.05
2022-12-28T09:21:38.467Z,4.00
2022-12-28T09:24:05.546Z,2.38
2022-12-28T09:26:38.239Z,3.03
2022-12-28T09:29:07.144Z,1.80
2022-12-28T09:31:37.132Z,1.65
2022-12-28T09:34:38.554Z,1.48
2022-12-28T09:36:55.346Z,1.65
2022-12-28T09:39:24.822Z,1.60
2022-12-28T09:41:59.724Z,1.63
2022-12-28T09:44:51.141Z,2.03
2022-12-28T09:47:26.199Z,1.65
2022-12-28T09:49:55.946Z,2.05
2022-12-28T09:52:25.768Z,2.83
2022-12-28T09:54:52.573Z,2.42
2022-12-28T09:57:20.038Z,2.83
2022-12-28T09:59:47.873Z,2.75
2022-12-28T10:02:30.115Z,2.85
2022-12-28T10:04:57.084Z,5.78
2022-12-28T10:07:23.776Z,4.50
2022-12-28T10:09:50.788Z,3.25
2022-12-28T10:12:20.951Z,2.40
2022-12-28T10:14:48.667Z,4.22
2022-12-28T10:17:17.222Z,2.25
2022-12-28T10:19:47.740Z,2.92
2022-12-28T10:22:18.504Z,4.30
2022-12-28T10:24:45.817Z,2.58
2022-12-28T10:27:29.656Z,1.85
2022-12-28T10:30:00.186Z,1.73
2022-12-28T10:32:26.865Z,1.73
2022-12-28T10:34:58.754Z,1.52
2022-12-28T10:37:32.792Z,1.73
2022-12-28T10:40:02.324Z,2.17
2022-12-28T10:42:30.276Z,2.38
2022-12-28T10:45:03.871Z,3.05
2022-12-28T10:47:36.136Z,2.22
2022-12-28T10:52:58.607Z,1.77
2022-12-28T10:55:34.750Z,2.33
2022-12-28T10:58:33.395Z,2.30
2022-12-28T11:01:08.139Z,2.00
2022-12-28T11:03:21.536Z,1.83
2022-12-28T11:03:37.703Z,3.03
2022-12-28T11:06:15.012Z,3.40
2022-12-28T11:08:43.510Z,1.83
2022-12-28T11:11:21.919Z,1.55
2022-12-28T11:14:37.859Z,2.00
2022-12-28T11:17:20.503Z,1.40
2022-12-28T11:19:49.322Z,1.90
2022-12-28T11:22:24.989Z,1.23
2022-12-28T11:24:51.932Z,1.40
2022-12-28T11:27:20.268Z,1.38
2022-12-28T11:29:49.624Z,1.90
2022-12-28T11:32:38.549Z,1.60
2022-12-28T11:35:07.018Z,1.25
2022-12-28T11:37:33.731Z,1.55
2022-12-28T11:40:00.446Z,1.73
2022-12-28T11:42:39.515Z,1.67
2022-12-28T11:45:17.181Z,1.50
2022-12-28T11:47:45.696Z,1.67
2022-12-28T11:50:34.509Z,1.38
2022-12-28T11:53:02.724Z,1.38
2022-12-28T11:55:48.377Z,0.93
2022-12-28T11:58:30.366Z,1.60
2022-12-28T12:01:00.201Z,1.35
2022-12-28T12:03:57.883Z,1.45
2022-12-28T12:06:42.993Z,1.50
2022-12-28T12:09:21.923Z,1.40
2022-12-28T12:11:50.388Z,1.52
2022-12-28T12:14:21.944Z,4.15
2022-12-28T12:16:51.416Z,1.65
2022-12-28T12:19:25.747Z,2.08
2022-12-28T12:22:16.598Z,2.38
2022-12-28T12:24:48.324Z,1.33
2022-12-28T12:27:18.947Z,1.52
2022-12-28T12:29:51.029Z,1.33
2022-12-28T12:32:38.977Z,0.98
2022-12-28T12:35:07.743Z,1.95
2022-12-28T12:37:50.391Z,1.67
2022-12-28T12:40:23.058Z,1.55
2022-12-28T12:43:11.704Z,1.48
2022-12-28T12:45:56.029Z,1.70
2022-12-28T12:48:57.279Z,1.38
2022-12-28T12:51:45.270Z,2.78
2022-12-28T12:54:32.990Z,1.38
2022-12-28T12:59:54.025Z,1.95
2022-12-28T13:02:35.476Z,2.95
2022-12-28T13:07:29.865Z,1.65
2022-12-28T13:10:03.092Z,1.77
2022-12-28T13:12:29.918Z,1.50
2022-12-28T13:15:02.880Z,1.90
2022-12-28T13:17:31.619Z,1.45
2022-12-28T13:20:18.511Z,2.53
2022-12-28T13:22:47.229Z,2.25
2022-12-28T13:25:31.760Z,1.70
2022-12-28T13:28:00.739Z,1.65
2022-12-28T13:30:28.506Z,1.73
2022-12-28T13:32:58.162Z,1.60
2022-12-28T13:35:30.152Z,1.80
2022-12-28T13:38:09.668Z,1.67
2022-12-28T13:40:38.110Z,2.42
2022-12-28T13:43:36.463Z,1.50
2022-12-28T13:46:09.129Z,1.50
2022-12-28T13:48:37.817Z,1.98
2022-12-28T13:51:08.509Z,1.80
2022-12-28T13:53:35.866Z,1.60
2022-12-28T13:56:04.606Z,1.77
2022-12-28T13:58:36.868Z,1.60
2022-12-28T14:01:07.770Z,1.30
2022-12-28T14:03:41.396Z,1.80
2022-12-28T14:06:10.558Z,1.85
2022-12-28T14:08:38.755Z,1.30
2022-12-28T14:11:05.908Z,2.05
2022-12-28T14:13:33.039Z,2.40
2022-12-28T14:16:01.970Z,1.63
2022-12-28T14:18:30.299Z,1.60
2022-12-28T14:20:58.297Z,2.13
2022-12-28T14:23:25.934Z,2.40
2022-12-28T14:25:53.436Z,2.75
2022-12-28T14:28:37.650Z,2.22
2022-12-28T14:31:06.189Z,2.05
2022-12-28T14:33:36.306Z,2.17
2022-12-28T14:36:05.919Z,3.53
2022-12-28T14:38:45.359Z,3.70
2022-12-28T14:41:21.078Z,3.90
2022-12-28T14:43:53.496Z,3.85
2022-12-28T14:46:33.855Z,3.38
2022-12-28T14:49:06.275Z,2.17
2022-12-28T14:51:35.156Z,2.22
2022-12-28T14:54:23.444Z,3.40
2022-12-28T14:57:05.022Z,3.58
2022-12-28T14:59:38.846Z,6.18
2022-12-28T15:02:06.057Z,13.38
2022-12-28T15:04:40.770Z,32.22
2022-12-28T15:07:09.744Z,5.22
2022-12-28T15:09:36.749Z,3.13
2022-12-28T15:12:10.041Z,2.75
2022-12-28T15:14:37.009Z,4.13
2022-12-28T15:17:03.723Z,4.05
2022-12-28T15:19:30.401Z,4.13
2022-12-28T15:21:57.062Z,4.43
2022-12-28T15:24:26.234Z,4.05
2022-12-28T15:26:55.505Z,6.28
2022-12-28T15:29:39.388Z,4.18
2022-12-28T15:32:08.805Z,3.38
2022-12-28T15:34:35.463Z,5.85
2022-12-28T15:37:02.131Z,9.65
2022-12-28T15:39:28.761Z,4.53
2022-12-28T15:41:55.463Z,7.82
2022-12-28T15:44:22.222Z,10.20
2022-12-28T15:46:52.441Z,12.48
2022-12-28T15:49:19.323Z,16.92
2022-12-28T15:51:46.077Z,16.20
2022-12-28T15:54:13.526Z,14.70
2022-12-28T15:56:41.373Z,16.85
2022-12-28T15:59:12.739Z,15.75
2022-12-28T16:01:40.552Z,14.75
2022-12-28T16:04:07.347Z,15.70
2022-12-28T16:06:40.066Z,19.83
2022-12-28T16:09:10.413Z,20.15
2022-12-28T16:11:37.374Z,16.02
2022-12-28T16:14:05.657Z,15.73
2022-12-28T16:16:36.306Z,18.70
2022-12-28T16:19:03.291Z,19.75
2022-12-28T16:21:30.589Z,19.50
2022-12-28T16:23:59.790Z,17.45
2022-12-28T16:26:26.741Z,11.02
2022-12-28T16:28:53.415Z,16.02
2022-12-28T16:31:23.680Z,13.82
2022-12-28T16:33:54.897Z,14.20
2022-12-28T16:36:22.112Z,17.13
2022-12-28T16:38:48.783Z,18.80
2022-12-28T16:41:15.458Z,11.65
2022-12-28T16:43:42.140Z,14.57
2022-12-28T16:46:09.870Z,14.48
2022-12-28T16:48:37.638Z,6.78
2022-12-28T16:51:05.168Z,14.27
2022-12-28T16:53:33.507Z,18.88
2022-12-28T16:56:01.398Z,18.40
2022-12-28T16:58:29.244Z,13.23
2022-12-28T17:00:56.878Z,9.60
2022-12-28T17:03:24.032Z,10.20
2022-12-28T17:05:52.548Z,13.30
2022-12-28T17:08:19.514Z,13.70
2022-12-28T17:10:46.581Z,10.85
2022-12-28T17:13:13.253Z,6.82
2022-12-28T17:15:40.481Z,14.10
2022-12-28T17:18:07.345Z,10.10
2022-12-28T17:20:37.750Z,10.65
2022-12-28T17:23:05.436Z,17.80
2022-12-28T17:25:33.164Z,8.43
2022-12-28T17:28:00.431Z,12.07
2022-12-28T17:30:28.103Z,11.75
2022-12-28T17:32:54.950Z,13.98
2022-12-28T17:35:21.965Z,9.27
2022-12-28T17:37:48.747Z,18.05
2022-12-28T17:40:15.497Z,13.05
2022-12-28T17:42:42.466Z,12.40
2022-12-28T17:45:11.891Z,13.38
2022-12-28T17:47:39.111Z,19.77
2022-12-28T17:50:06.748Z,19.75
2022-12-28T17:52:33.551Z,18.98
2022-12-28T17:55:00.333Z,13.95
2022-12-28T17:57:27.171Z,19.80
2022-12-28T17:59:53.981Z,15.70
2022-12-28T18:02:21.052Z,16.13
2022-12-28T18:04:48.227Z,19.90
2022-12-28T18:07:14.945Z,13.95
2022-12-28T18:09:41.638Z,15.98
2022-12-28T18:12:08.432Z,12.10
2022-12-28T18:14:35.096Z,19.30
2022-12-28T18:17:20.325Z,18.48
2022-12-28T18:19:47.121Z,17.92
2022-12-28T18:22:13.774Z,16.25
2022-12-28T18:24:40.432Z,15.48
2022-12-28T18:27:07.178Z,18.83
2022-12-28T18:29:33.817Z,17.98
2022-12-28T18:32:00.520Z,20.75
2022-12-28T18:34:27.218Z,19.58
2022-12-28T18:36:53.881Z,20.98
2022-12-28T18:39:20.584Z,20.90
2022-12-28T18:41:47.240Z,19.30
2022-12-28T18:44:14.084Z,19.10
2022-12-28T18:46:40.956Z,17.58
2022-12-28T18:49:07.745Z,20.80
2022-12-28T18:51:34.434Z,42.70
2022-12-28T18:54:01.097Z,37.05
2022-12-28T18:56:27.842Z,32.97
2022-12-28T18:58:55.866Z,37.00
2022-12-28T19:04:16.386Z,53.38
2022-12-28T19:06:43.548Z,54.70
2022-12-28T19:09:11.110Z,50.65
2022-12-28T19:11:38.678Z,67.13
2022-12-28T19:14:07.517Z,77.60
2022-12-28T19:16:34.884Z,74.47
2022-12-28T19:19:02.107Z,64.00
2022-12-28T19:21:34.209Z,82.75
2022-12-28T19:24:03.639Z,58.78
2022-12-28T19:28:58.283Z,76.88
2022-12-28T19:31:25.099Z,80.93
2022-12-28T19:33:51.793Z,80.00
2022-12-28T19:36:18.609Z,78.57
2022-12-28T19:38:45.416Z,84.45
2022-12-28T19:41:14.767Z,72.78
2022-12-28T19:43:42.299Z,80.15
2022-12-28T19:46:14.229Z,63.97
2022-12-28T19:48:41.065Z,57.38
2022-12-28T19:51:08.184Z,57.05
2022-12-28T19:53:35.402Z,57.38
2022-12-28T19:56:10.958Z,54.67
2022-12-28T19:58:39.557Z,51.55
2022-12-28T20:01:08.252Z,52.50
2022-12-28T20:03:35.253Z,51.58
2022-12-28T20:06:11.212Z,50.30
2022-12-28T20:08:38.977Z,52.15
2022-12-28T20:11:06.909Z,47.58
2022-12-28T20:13:34.124Z,54.08
2022-12-28T20:16:00.834Z,50.05
2022-12-28T20:18:28.288Z,50.13
2022-12-28T20:21:22.153Z,48.83
2022-12-28T20:23:49.860Z,45.75
2022-12-28T20:26:17.579Z,47.30
2022-12-28T20:28:44.733Z,48.38
2022-12-28T20:31:14.495Z,45.03
2022-12-28T20:33:42.188Z,46.42
2022-12-28T20:36:17.277Z,33.00
2022-12-28T20:38:44.140Z,32.90
2022-12-28T20:41:36.314Z,52.33
2022-12-28T20:44:06.741Z,48.88
2022-12-28T20:46:33.576Z,50.60
2022-12-28T20:49:00.357Z,50.92
2022-12-28T20:51:27.530Z,52.55
2022-12-28T20:53:54.611Z,49.88
2022-12-28T20:56:23.073Z,49.05
2022-12-28T20:58:50.255Z,47.17
2022-12-28T21:01:17.397Z,44.92
2022-12-28T21:03:44.691Z,41.67
2022-12-28T21:06:11.551Z,40.80
2022-12-28T21:08:38.404Z,45.25
2022-12-28T21:11:05.188Z,48.00
2022-12-28T21:13:32.054Z,46.35
2022-12-28T21:15:59.156Z,43.53
2022-12-28T21:18:25.907Z,41.80
2022-12-28T21:20:55.566Z,35.60
2022-12-28T21:23:22.245Z,45.33
2022-12-28T21:25:49.205Z,44.92
2022-12-28T21:28:15.891Z,46.47
2022-12-28T21:30:42.625Z,14.32
2022-12-28T21:33:09.319Z,32.20
2022-12-28T21:35:36.083Z,10.05
2022-12-28T21:38:04.763Z,13.57
2022-12-28T21:40:31.487Z,13.23
2022-12-28T21:42:58.155Z,16.25
2022-12-28T21:45:24.869Z,13.88
2022-12-28T21:47:51.555Z,32.38
2022-12-28T21:50:18.348Z,35.97
2022-12-28T21:52:44.989Z,30.63
2022-12-28T21:55:30.164Z,31.17
2022-12-28T21:57:59.536Z,30.05
2022-12-28T22:00:45.219Z,31.45
2022-12-28T22:03:41.102Z,27.77
2022-12-28T22:06:09.279Z,29.13
2022-12-28T22:09:11.411Z,34.33
2022-12-28T22:11:56.698Z,39.55
2022-12-28T22:14:23.394Z,50.00
2022-12-28T22:16:50.063Z,43.17
2022-12-28T22:19:16.743Z,48.05
2022-12-28T22:21:44.179Z,47.25
2022-12-28T22:24:10.885Z,47.70
2022-12-28T22:26:37.669Z,46.53
2022-12-28T22:29:04.385Z,55.40
2022-12-28T22:31:31.119Z,46.88
2022-12-28T22:34:03.198Z,47.53
2022-12-28T22:36:33.745Z,46.53
2022-12-28T22:39:00.442Z,46.45
2022-12-28T22:41:27.137Z,45.00
2022-12-28T22:43:54.262Z,38.33
2022-12-28T22:46:21.382Z,22.42
2022-12-28T22:48:49.085Z,10.70
2022-12-28T22:51:17.186Z,8.52
2022-12-28T22:53:44.259Z,6.90
2022-12-28T22:56:15.841Z,7.03
2022-12-28T22:58:42.676Z,5.38
2022-12-28T23:01:12.277Z,6.28
2022-12-28T23:03:40.444Z,4.93
2022-12-28T23:06:11.208Z,5.57
2022-12-28T23:08:38.184Z,7.47
2022-12-28T23:11:30.855Z,11.07
2022-12-28T23:14:18.685Z,28.48
2022-12-28T23:16:45.663Z,21.55
2022-12-28T23:19:31.375Z,18.65
2022-12-28T23:22:17.165Z,10.32
2022-12-28T23:25:02.956Z,13.93
2022-12-28T23:27:39.492Z,21.30
2022-12-28T23:30:19.461Z,25.02
2022-12-28T23:32:50.451Z,28.58
2022-12-28T23:35:18.808Z,25.92
2022-12-28T23:37:46.496Z,31.20
2022-12-28T23:40:15.328Z,31.15
2022-12-28T23:42:43.026Z,26.10
2022-12-28T23:45:12.654Z,32.10
2022-12-28T23:47:39.506Z,29.38
2022-12-28T23:50:06.939Z,28.05
2022-12-28T23:52:33.889Z,28.23
2022-12-28T23:55:00.702Z,29.48
2022-12-28T23:57:27.815Z,28.15
2022-12-28T23:59:54.793Z,28.83
